createdAt,value
2022-08-05T00:00:00.466Z,3.23
2022-08-05T00:02:28.822Z,4.03
2022-08-05T00:04:57.759Z,3.10
2022-08-05T00:07:59.169Z,3.53
2022-08-05T00:10:14.331Z,2.70
2022-08-05T00:12:55.699Z,3.33
2022-08-05T00:15:57.631Z,3.50
2022-08-05T00:18:21.340Z,3.00
2022-08-05T00:20:50.596Z,3.40
2022-08-05T00:23:44.711Z,3.83
2022-08-05T00:26:08.182Z,3.10
2022-08-05T00:28:37.794Z,3.40
2022-08-05T00:31:08.703Z,3.10
2022-08-05T00:34:56.731Z,3.80
2022-08-05T00:37:10.761Z,3.53
2022-08-05T00:39:15.115Z,3.90
2022-08-05T00:41:55.345Z,3.77
2022-08-05T00:44:30.922Z,3.93
2022-08-05T00:47:02.096Z,3.43
2022-08-05T00:49:44.705Z,3.97
2022-08-05T00:52:28.105Z,4.70
2022-08-05T00:54:57.026Z,3.70
2022-08-05T00:57:31.861Z,3.10
2022-08-05T01:00:17.073Z,3.73
2022-08-05T01:02:48.073Z,3.30
2022-08-05T01:05:18.268Z,4.00
2022-08-05T01:08:41.548Z,2.83
2022-08-05T01:10:39.928Z,3.90
2022-08-05T01:13:27.569Z,3.43
2022-08-05T01:16:26.283Z,3.40
2022-08-05T01:19:01.062Z,3.97
2022-08-05T01:22:08.214Z,3.80
2022-08-05T01:24:57.421Z,3.90
2022-08-05T01:27:50.710Z,4.00
2022-08-05T01:30:34.205Z,3.17
2022-08-05T01:33:08.053Z,3.90
2022-08-05T01:35:51.832Z,3.37
2022-08-05T01:38:26.855Z,3.50
2022-08-05T01:40:58.440Z,4.00
2022-08-05T01:43:29.799Z,3.00
2022-08-05T01:46:07.467Z,4.03
2022-08-05T01:48:46.022Z,3.97
2022-08-05T01:51:18.833Z,4.10
2022-08-05T01:53:58.333Z,3.50
2022-08-05T01:58:09.845Z,3.50
2022-08-05T01:59:24.484Z,3.60
2022-08-05T02:01:57.703Z,3.57
2022-08-05T02:04:29.949Z,3.23
2022-08-05T02:06:59.873Z,3.17
2022-08-05T02:09:31.723Z,3.40
2022-08-05T02:12:10.155Z,3.20
2022-08-05T02:14:47.177Z,3.67
2022-08-05T02:18:28.784Z,2.87
2022-08-05T02:20:20.675Z,2.70
2022-08-05T02:22:58.020Z,3.27
2022-08-05T02:25:33.062Z,3.27
2022-08-05T02:28:04.313Z,3.27
2022-08-05T02:30:51.818Z,3.07
2022-08-05T02:33:24.373Z,3.30
2022-08-05T02:36:07.200Z,3.40
2022-08-05T02:38:38.812Z,2.57
2022-08-05T02:41:14.644Z,3.03
2022-08-05T02:44:06.561Z,2.73
2022-08-05T02:46:44.054Z,3.60
2022-08-05T02:49:26.715Z,2.90
2022-08-05T02:52:03.205Z,3.37
2022-08-05T02:54:35.937Z,3.70
2022-08-05T02:57:10.328Z,3.67
2022-08-05T02:59:57.511Z,3.33
2022-08-05T03:02:32.660Z,3.33
2022-08-05T03:05:02.280Z,3.50
2022-08-05T03:08:01.066Z,3.17
2022-08-05T03:10:24.943Z,3.20
2022-08-05T03:12:53.913Z,4.10
2022-08-05T03:15:23.647Z,3.33
2022-08-05T03:17:56.015Z,3.50
2022-08-05T03:20:26.329Z,3.40
2022-08-05T03:22:57.769Z,2.50
2022-08-05T03:25:33.668Z,2.70
2022-08-05T03:28:18.761Z,3.40
2022-08-05T03:30:49.447Z,2.90
2022-08-05T03:33:19.656Z,2.93
2022-08-05T03:35:49.917Z,2.93
2022-08-05T03:38:24.022Z,2.87
2022-08-05T03:41:08.543Z,3.00
2022-08-05T03:44:09.598Z,3.03
2022-08-05T03:46:29.822Z,3.17
2022-08-05T03:49:02.069Z,3.20
2022-08-05T03:52:50.546Z,3.00
2022-08-05T03:55:50.982Z,4.50
2022-08-05T03:57:42.246Z,3.30
2022-08-05T04:00:15.624Z,4.10
2022-08-05T04:02:58.105Z,2.90
2022-08-05T04:05:33.696Z,3.07
2022-08-05T04:08:29.766Z,3.47
2022-08-05T04:10:55.431Z,3.10
2022-08-05T04:13:23.825Z,3.10
2022-08-05T04:15:52.709Z,2.47
2022-08-05T04:18:32.196Z,3.20
2022-08-05T04:21:04.719Z,3.60
2022-08-05T04:24:00.272Z,3.67
2022-08-05T04:26:22.392Z,3.00
2022-08-05T04:28:50.976Z,3.77
2022-08-05T04:31:20.008Z,3.10
2022-08-05T04:34:18.713Z,4.00
2022-08-05T04:36:49.770Z,3.20
2022-08-05T04:39:18.781Z,2.90
2022-08-05T04:41:48.008Z,3.07
2022-08-05T04:44:21.486Z,3.80
2022-08-05T04:46:58.467Z,3.03
2022-08-05T04:50:01.999Z,3.43
2022-08-05T04:52:16.181Z,4.20
2022-08-05T04:54:44.174Z,3.60
2022-08-05T04:57:12.231Z,3.10
2022-08-05T04:59:40.763Z,2.93
2022-08-05T05:02:41.211Z,3.70
2022-08-05T05:05:01.815Z,3.20
2022-08-05T05:07:35.388Z,4.23
2022-08-05T05:10:06.471Z,3.53
2022-08-05T05:12:36.740Z,3.80
2022-08-05T05:15:10.733Z,5.40
2022-08-05T05:17:56.300Z,3.97
2022-08-05T05:20:28.215Z,3.30
2022-08-05T05:22:58.509Z,3.13
2022-08-05T05:25:40.610Z,2.80
2022-08-05T05:28:09.550Z,3.87
2022-08-05T05:30:37.748Z,3.53
2022-08-05T05:33:15.957Z,3.30
2022-08-05T05:35:46.708Z,3.23
2022-08-05T05:38:22.706Z,3.53
2022-08-05T05:40:55.737Z,3.67
2022-08-05T05:43:54.047Z,4.00
2022-08-05T05:46:15.844Z,3.20
2022-08-05T05:48:44.763Z,3.27
2022-08-05T05:51:19.932Z,3.50
2022-08-05T05:53:57.464Z,3.80
2022-08-05T05:56:33.161Z,3.43
2022-08-05T05:59:05.773Z,3.77
2022-08-05T06:01:37.447Z,3.30
2022-08-05T06:04:11.320Z,4.10
2022-08-05T06:06:41.653Z,3.10
2022-08-05T06:09:17.644Z,3.80
2022-08-05T06:12:01.081Z,3.20
2022-08-05T06:14:30.339Z,3.23
2022-08-05T06:16:58.766Z,4.30
2022-08-05T06:19:34.429Z,4.90
2022-08-05T06:22:03.398Z,3.77
2022-08-05T06:24:33.030Z,3.70
2022-08-05T06:27:03.883Z,4.20
2022-08-05T06:29:48.891Z,3.97
2022-08-05T06:32:25.037Z,4.27
2022-08-05T06:34:56.503Z,4.50
2022-08-05T06:37:56.301Z,4.03
2022-08-05T06:40:18.257Z,4.47
2022-08-05T06:42:51.697Z,3.87
2022-08-05T06:45:44.908Z,4.50
2022-08-05T06:48:36.959Z,4.57
2022-08-05T06:50:57.774Z,4.30
2022-08-05T06:53:28.655Z,4.70
2022-08-05T06:55:59.574Z,4.37
2022-08-05T06:58:34.922Z,3.90
2022-08-05T07:01:06.475Z,3.30
2022-08-05T07:03:35.765Z,3.20
2022-08-05T07:06:05.662Z,4.10
2022-08-05T07:08:47.248Z,3.07
2022-08-05T07:11:22.568Z,3.73
2022-08-05T07:14:20.045Z,3.03
2022-08-05T07:17:58.902Z,2.40
2022-08-05T07:20:16.834Z,2.13
2022-08-05T07:22:36.338Z,2.83
2022-08-05T07:25:23.301Z,2.40
2022-08-05T07:28:02.349Z,2.50
2022-08-05T07:30:38.404Z,2.13
2022-08-05T07:33:10.023Z,2.80
2022-08-05T07:36:02.310Z,2.60
2022-08-05T07:38:33.890Z,1.83
2022-08-05T07:42:08.442Z,1.83
2022-08-05T07:43:56.340Z,1.50
2022-08-05T07:46:26.392Z,2.40
2022-08-05T07:49:02.529Z,2.10
2022-08-05T07:51:37.581Z,2.77
2022-08-05T07:54:18.770Z,1.50
2022-08-05T07:57:02.740Z,1.83
2022-08-05T07:59:40.128Z,1.63
2022-08-05T08:02:15.349Z,2.00
2022-08-05T08:04:46.099Z,1.90
2022-08-05T08:07:22.003Z,1.43
2022-08-05T08:09:53.043Z,1.10
2022-08-05T08:12:37.419Z,1.50
2022-08-05T08:15:15.793Z,1.53
2022-08-05T08:17:49.836Z,1.83
2022-08-05T08:21:00.069Z,1.70
2022-08-05T08:24:00.477Z,1.10
2022-08-05T08:26:00.349Z,1.57
2022-08-05T08:28:37.016Z,1.47
2022-08-05T08:31:21.067Z,2.03
2022-08-05T08:33:51.666Z,1.27
2022-08-05T08:36:38.852Z,1.63
2022-08-05T08:39:15.219Z,1.50
2022-08-05T08:41:52.102Z,1.33
2022-08-05T08:45:23.663Z,1.90
2022-08-05T08:48:07.620Z,1.30
2022-08-05T08:50:31.826Z,1.90
2022-08-05T08:53:08.007Z,1.10
2022-08-05T08:56:03.891Z,1.50
2022-08-05T08:58:37.562Z,1.60
2022-08-05T09:01:16.867Z,1.90
2022-08-05T09:03:53.068Z,2.00
2022-08-05T09:06:28.225Z,1.70
2022-08-05T09:08:57.530Z,1.30
2022-08-05T09:11:50.747Z,1.90
2022-08-05T09:14:56.508Z,1.43
2022-08-05T09:17:02.701Z,1.50
2022-08-05T09:19:36.569Z,2.00
2022-08-05T09:22:28.763Z,1.60
2022-08-05T09:25:00.396Z,1.20
2022-08-05T09:28:05.018Z,1.73
2022-08-05T09:30:23.365Z,1.47
2022-08-05T09:32:52.779Z,1.83
2022-08-05T09:35:27.310Z,1.70
2022-08-05T09:38:16.303Z,1.70
2022-08-05T09:40:53.603Z,2.53
2022-08-05T09:43:40.883Z,1.10
2022-08-05T09:46:27.775Z,1.47
2022-08-05T09:49:08.146Z,1.73
2022-08-05T09:51:50.040Z,1.70
2022-08-05T09:54:28.794Z,1.27
2022-08-05T09:57:01.516Z,1.70
2022-08-05T09:59:34.910Z,1.60
2022-08-05T10:02:05.192Z,1.37
2022-08-05T10:04:38.627Z,1.57
2022-08-05T10:07:20.597Z,2.03
2022-08-05T10:10:14.298Z,2.00
2022-08-05T10:12:49.390Z,1.60
2022-08-05T10:15:25.753Z,1.43
2022-08-05T10:18:12.970Z,1.63
2022-08-05T10:20:47.834Z,1.30
2022-08-05T10:23:34.533Z,1.37
2022-08-05T10:26:14.409Z,1.70
2022-08-05T10:28:44.050Z,1.50
2022-08-05T10:32:52.720Z,1.40
2022-08-05T10:34:03.925Z,1.33
2022-08-05T10:36:36.562Z,1.70
2022-08-05T10:39:15.050Z,2.00
2022-08-05T10:42:01.317Z,1.40
2022-08-05T10:44:32.365Z,1.57
2022-08-05T10:47:25.888Z,1.70
2022-08-05T10:50:35.292Z,1.60
2022-08-05T10:53:00.137Z,1.10
2022-08-05T10:55:30.523Z,1.50
2022-08-05T10:58:11.787Z,1.63
2022-08-05T11:00:47.519Z,1.77
2022-08-05T11:03:23.461Z,1.20
2022-08-05T11:06:16.115Z,1.30
2022-08-05T11:09:16.755Z,1.37
2022-08-05T11:11:53.361Z,1.60
2022-08-05T11:14:57.844Z,1.37
2022-08-05T11:17:58.827Z,1.50
2022-08-05T11:20:37.487Z,1.70
2022-08-05T11:23:49.747Z,1.57
2022-08-05T11:26:28.048Z,1.33
2022-08-05T11:29:12.538Z,1.70
2022-08-05T11:31:57.537Z,1.10
2022-08-05T11:34:39.462Z,1.43
2022-08-05T11:38:27.776Z,1.20
2022-08-05T11:40:03.101Z,1.60
2022-08-05T11:42:37.971Z,1.33
2022-08-05T11:45:23.147Z,1.50
2022-08-05T11:47:58.999Z,1.27
2022-08-05T11:50:27.256Z,1.00
2022-08-05T11:52:58.179Z,1.03
2022-08-05T11:55:36.041Z,1.40
2022-08-05T11:58:09.941Z,1.53
2022-08-05T12:00:44.054Z,1.17
2022-08-05T12:03:28.990Z,1.60
2022-08-05T12:06:05.958Z,1.53
2022-08-05T12:08:34.900Z,1.47
2022-08-05T12:11:10.091Z,2.13
2022-08-05T12:13:58.704Z,2.10
2022-08-05T12:16:38.344Z,1.47
2022-08-05T12:19:08.458Z,1.97
2022-08-05T12:21:39.431Z,1.73
2022-08-05T12:24:09.751Z,1.30
2022-08-05T12:26:39.656Z,1.80
2022-08-05T12:29:16.317Z,1.70
2022-08-05T12:31:53.086Z,1.60
2022-08-05T12:34:26.625Z,1.50
2022-08-05T12:36:56.797Z,1.67
2022-08-05T12:39:34.615Z,1.60
2022-08-05T12:42:14.376Z,1.63
2022-08-05T12:44:43.160Z,1.37
2022-08-05T12:47:13.631Z,1.93
2022-08-05T12:50:04.430Z,1.90
2022-08-05T12:52:38.641Z,1.77
2022-08-05T12:55:22.258Z,1.90
2022-08-05T12:58:49.052Z,2.03
2022-08-05T13:02:00.762Z,1.60
2022-08-05T13:03:33.261Z,1.63
2022-08-05T13:06:02.543Z,1.70
2022-08-05T13:08:32.368Z,1.30
2022-08-05T13:11:04.063Z,1.67
2022-08-05T13:14:06.216Z,1.93
2022-08-05T13:16:25.010Z,1.60
2022-08-05T13:18:58.703Z,2.00
2022-08-05T13:21:28.117Z,1.50
2022-08-05T13:24:08.688Z,1.83
2022-08-05T13:26:37.183Z,1.80
2022-08-05T13:29:06.164Z,1.67
2022-08-05T13:32:04.884Z,1.53
2022-08-05T13:34:26.027Z,1.70
2022-08-05T13:36:54.849Z,1.80
2022-08-05T13:40:13.659Z,1.80
2022-08-05T13:42:14.258Z,1.80
2022-08-05T13:44:45.453Z,2.30
2022-08-05T13:47:35.718Z,1.50
2022-08-05T13:50:06.615Z,1.60
2022-08-05T13:52:39.368Z,1.40
2022-08-05T13:55:09.993Z,1.73
2022-08-05T13:57:48.686Z,1.60
2022-08-05T14:00:27.673Z,1.60
2022-08-05T14:02:56.730Z,1.40
2022-08-05T14:05:48.243Z,1.50
2022-08-05T14:08:20.032Z,1.70
2022-08-05T14:10:49.820Z,1.70
2022-08-05T14:13:17.845Z,2.40
2022-08-05T14:16:08.684Z,2.10
2022-08-05T14:18:34.405Z,2.23
2022-08-05T14:22:06.703Z,2.00
2022-08-05T14:23:55.543Z,1.70
2022-08-05T14:26:38.419Z,2.20
2022-08-05T14:29:16.076Z,1.83
2022-08-05T14:32:02.749Z,1.57
2022-08-05T14:34:35.099Z,2.10
2022-08-05T14:37:05.077Z,2.03
2022-08-05T14:39:49.474Z,2.07
2022-08-05T14:42:22.563Z,1.97
2022-08-05T14:44:53.381Z,2.00
2022-08-05T14:48:02.432Z,1.90
2022-08-05T14:50:18.369Z,2.10
2022-08-05T14:52:56.811Z,1.77
2022-08-05T14:55:28.762Z,1.63
2022-08-05T14:58:11.041Z,2.63
2022-08-05T15:00:58.800Z,2.00
2022-08-05T15:03:33.179Z,1.93
2022-08-05T15:06:07.608Z,1.83
2022-08-05T15:08:57.946Z,2.03
2022-08-05T15:11:52.904Z,1.80
2022-08-05T15:14:33.314Z,1.80
2022-08-05T15:17:04.281Z,1.37
2022-08-05T15:19:32.633Z,1.80
2022-08-05T15:22:01.730Z,1.77
2022-08-05T15:24:31.300Z,1.50
2022-08-05T15:26:59.274Z,1.50
2022-08-05T15:29:30.146Z,1.50
2022-08-05T15:32:02.958Z,1.93
2022-08-05T15:34:33.890Z,1.60
2022-08-05T15:37:05.081Z,1.73
2022-08-05T15:41:00.148Z,1.93
2022-08-05T15:42:55.102Z,1.80
2022-08-05T15:45:13.363Z,1.47
2022-08-05T15:47:42.210Z,1.37
2022-08-05T15:50:15.295Z,1.30
2022-08-05T15:52:53.046Z,1.70
2022-08-05T15:55:24.795Z,1.80
2022-08-05T15:58:16.444Z,1.93
2022-08-05T16:00:50.721Z,2.03
2022-08-05T16:03:33.933Z,1.80
2022-08-05T16:06:02.285Z,2.67
2022-08-05T16:08:30.993Z,2.50
2022-08-05T16:11:00.711Z,2.90
2022-08-05T16:13:34.511Z,2.00
2022-08-05T16:16:03.773Z,2.20
2022-08-05T16:18:32.747Z,2.63
2022-08-05T16:21:04.571Z,1.80
2022-08-05T16:23:53.934Z,2.30
2022-08-05T16:26:26.409Z,2.27
2022-08-05T16:28:55.872Z,2.80
2022-08-05T16:31:24.234Z,2.47
2022-08-05T16:33:53.675Z,2.50
2022-08-05T16:36:23.879Z,3.10
2022-08-05T16:38:55.079Z,2.53
2022-08-05T16:42:14.006Z,2.57
2022-08-05T16:44:14.810Z,2.93
2022-08-05T16:46:55.367Z,2.70
2022-08-05T16:49:26.437Z,2.30
2022-08-05T16:51:57.154Z,3.20
2022-08-05T16:54:28.972Z,3.10
2022-08-05T16:57:02.388Z,2.53
2022-08-05T16:59:30.710Z,2.27
2022-08-05T17:01:59.443Z,2.30
2022-08-05T17:04:29.140Z,2.80
2022-08-05T17:07:01.066Z,2.73
2022-08-05T17:09:38.788Z,2.43
2022-08-05T17:12:22.627Z,2.30
2022-08-05T17:15:09.315Z,2.17
2022-08-05T17:17:41.963Z,2.33
2022-08-05T17:20:14.695Z,2.20
2022-08-05T17:22:44.927Z,2.30
2022-08-05T17:25:22.204Z,3.10
2022-08-05T17:28:02.411Z,2.50
2022-08-05T17:30:30.718Z,2.27
2022-08-05T17:32:58.745Z,2.00
2022-08-05T17:35:26.798Z,2.40
2022-08-05T17:38:04.847Z,2.50
2022-08-05T17:40:33.216Z,2.13
2022-08-05T17:43:03.491Z,2.30
2022-08-05T17:45:38.522Z,2.47
2022-08-05T17:48:07.899Z,2.53
2022-08-05T17:50:36.064Z,2.43
2022-08-05T17:53:05.220Z,2.30
2022-08-05T17:55:39.615Z,1.97
2022-08-05T17:58:12.880Z,2.30
2022-08-05T18:00:45.473Z,2.73
2022-08-05T18:06:11.153Z,2.17
2022-08-05T18:08:44.086Z,2.37
2022-08-05T18:11:24.550Z,2.33
2022-08-05T18:13:59.593Z,2.20
2022-08-05T18:16:27.970Z,2.57
2022-08-05T18:18:56.186Z,2.50
2022-08-05T18:21:26.402Z,2.83
2022-08-05T18:23:56.576Z,2.50
2022-08-05T18:26:29.611Z,2.70
2022-08-05T18:29:01.557Z,2.33
2022-08-05T18:31:33.790Z,2.97
2022-08-05T18:34:06.150Z,3.40
2022-08-05T18:36:43.646Z,3.60
2022-08-05T18:39:42.150Z,3.17
2022-08-05T18:42:06.310Z,4.10
2022-08-05T18:44:55.597Z,3.53
2022-08-05T18:47:26.376Z,3.57
2022-08-05T18:50:13.128Z,3.10
2022-08-05T18:52:51.138Z,4.00
2022-08-05T18:55:21.484Z,4.40
2022-08-05T18:57:53.882Z,3.40
2022-08-05T19:00:34.849Z,4.47
2022-08-05T19:03:03.561Z,3.93
2022-08-05T19:06:13.612Z,4.20
2022-08-05T19:08:21.976Z,4.13
2022-08-05T19:11:04.543Z,4.57
2022-08-05T19:13:35.716Z,4.00
2022-08-05T19:16:25.095Z,3.50
2022-08-05T19:18:56.820Z,4.23
2022-08-05T19:21:27.586Z,4.63
2022-08-05T19:24:06.803Z,4.90
2022-08-05T19:26:54.650Z,4.90
2022-08-05T19:29:26.538Z,4.60
2022-08-05T19:32:08.656Z,4.83
2022-08-05T19:34:40.618Z,4.70
2022-08-05T19:37:11.101Z,4.07
2022-08-05T19:39:45.904Z,4.60
2022-08-05T19:42:19.314Z,3.90
2022-08-05T19:45:05.949Z,5.27
2022-08-05T19:47:37.709Z,4.00
2022-08-05T19:50:07.536Z,4.93
2022-08-05T19:52:37.850Z,5.03
2022-08-05T19:56:11.330Z,4.40
2022-08-05T19:58:14.447Z,5.30
2022-08-05T20:00:43.690Z,4.50
2022-08-05T20:03:13.165Z,3.80
2022-08-05T20:05:49.920Z,4.30
2022-08-05T20:08:18.568Z,3.90
2022-08-05T20:10:49.345Z,4.07
2022-08-05T20:13:18.269Z,4.27
2022-08-05T20:15:57.977Z,4.20
2022-08-05T20:18:33.806Z,4.50
2022-08-05T20:21:05.275Z,3.07
2022-08-05T20:23:40.525Z,5.77
2022-08-05T20:26:18.947Z,4.47
2022-08-05T20:28:48.488Z,4.20
2022-08-05T20:31:17.018Z,4.13
2022-08-05T20:33:46.711Z,3.70
2022-08-05T20:36:16.248Z,4.03
2022-08-05T20:38:53.686Z,4.40
2022-08-05T20:41:43.266Z,3.50
2022-08-05T20:44:18.774Z,3.23
2022-08-05T20:46:57.023Z,3.30
2022-08-05T20:49:27.030Z,3.60
2022-08-05T20:51:57.482Z,3.30
2022-08-05T20:54:42.466Z,4.10
2022-08-05T20:57:42.744Z,4.20
2022-08-05T21:00:20.695Z,3.93
2022-08-05T21:02:56.909Z,4.13
2022-08-05T21:05:38.357Z,4.50
2022-08-05T21:08:14.906Z,4.40
2022-08-05T21:10:48.857Z,4.00
2022-08-05T21:13:26.572Z,3.33
2022-08-05T21:16:06.058Z,4.83
2022-08-05T21:18:34.028Z,3.37
2022-08-05T21:21:05.437Z,4.53
2022-08-05T21:23:37.107Z,4.00
2022-08-05T21:26:08.334Z,3.60
2022-08-05T21:28:40.753Z,5.03
2022-08-05T21:31:16.056Z,4.23
2022-08-05T21:33:47.841Z,3.43
2022-08-05T21:36:19.076Z,4.53
2022-08-05T21:38:55.861Z,3.60
2022-08-05T21:41:23.862Z,4.67
2022-08-05T21:44:01.501Z,3.60
2022-08-05T21:46:31.638Z,4.97
2022-08-05T21:49:02.408Z,4.07
2022-08-05T21:52:15.821Z,4.50
2022-08-05T21:54:30.655Z,3.60
2022-08-05T21:57:28.328Z,3.23
2022-08-05T22:00:06.425Z,4.20
2022-08-05T22:02:35.391Z,3.97
2022-08-05T22:05:04.412Z,2.77
2022-08-05T22:07:40.469Z,2.60
2022-08-05T22:10:26.757Z,2.80
2022-08-05T22:12:57.136Z,4.93
2022-08-05T22:16:00.383Z,3.40
2022-08-05T22:18:14.786Z,2.70
2022-08-05T22:20:44.285Z,3.37
2022-08-05T22:24:02.270Z,2.60
2022-08-05T22:26:39.055Z,3.47
2022-08-05T22:29:08.781Z,3.67
2022-08-05T22:31:44.550Z,3.23
2022-08-05T22:34:25.431Z,2.50
2022-08-05T22:36:56.709Z,2.80
2022-08-05T22:39:33.045Z,2.77
2022-08-05T22:42:10.421Z,1.90
2022-08-05T22:44:40.077Z,3.13
2022-08-05T22:47:08.369Z,2.50
2022-08-05T22:50:18.410Z,2.50
2022-08-05T22:52:32.768Z,2.47
2022-08-05T22:55:19.385Z,2.23
2022-08-05T22:57:49.152Z,2.87
2022-08-05T23:00:20.880Z,2.43
2022-08-05T23:02:49.836Z,2.77
2022-08-05T23:05:18.595Z,2.53
2022-08-05T23:07:49.597Z,3.03
2022-08-05T23:10:20.719Z,1.70
2022-08-05T23:12:54.627Z,2.17
2022-08-05T23:15:27.136Z,2.63
2022-08-05T23:18:00.970Z,2.30
2022-08-05T23:20:31.407Z,2.37
2022-08-05T23:23:00.225Z,2.23
2022-08-05T23:25:52.569Z,1.20
2022-08-05T23:28:21.137Z,1.60
2022-08-05T23:30:53.784Z,1.60
2022-08-05T23:33:26.515Z,2.07
2022-08-05T23:36:13.531Z,1.50
2022-08-05T23:38:42.763Z,1.10
2022-08-05T23:41:12.777Z,1.30
2022-08-05T23:44:04.873Z,1.30
2022-08-05T23:46:29.748Z,2.27
2022-08-05T23:49:00.659Z,1.47
2022-08-05T23:51:53.683Z,1.57
2022-08-05T23:54:25.657Z,1.80
2022-08-05T23:57:03.436Z,1.27
